createdAt,value
2023-03-15T00:00:32.364Z,8.00
2023-03-15T00:01:32.337Z,8.40
2023-03-15T00:03:49.773Z,6.10
2023-03-15T00:04:49.737Z,5.10
2023-03-15T00:05:49.742Z,5.60
2023-03-15T00:06:49.711Z,6.20
2023-03-15T00:07:49.705Z,7.90
2023-03-15T00:08:49.697Z,8.70
2023-03-15T00:09:49.684Z,9.60
2023-03-15T00:10:49.682Z,6.20
2023-03-15T00:11:49.792Z,9.70
2023-03-15T00:12:49.648Z,7.60
2023-03-15T00:13:49.640Z,9.10
2023-03-15T00:14:49.625Z,8.00
2023-03-15T00:15:49.690Z,6.40
2023-03-15T00:16:49.760Z,6.40
2023-03-15T00:17:49.598Z,7.10
2023-03-15T00:18:49.582Z,4.90
2023-03-15T00:19:49.583Z,6.00
2023-03-15T00:20:49.577Z,4.80
2023-03-15T00:21:49.558Z,5.80
2023-03-15T00:22:49.553Z,5.40
2023-03-15T00:23:49.537Z,7.80
2023-03-15T00:24:49.522Z,6.50
2023-03-15T00:25:49.530Z,6.30
2023-03-15T00:26:49.497Z,7.00
2023-03-15T00:27:49.493Z,6.40
2023-03-15T00:28:49.478Z,4.70
2023-03-15T00:29:49.472Z,5.30
2023-03-15T00:30:49.520Z,5.60
2023-03-15T00:31:49.453Z,6.00
2023-03-15T00:32:49.509Z,8.40
2023-03-15T00:33:49.430Z,9.10
2023-03-15T00:34:49.419Z,8.50
2023-03-15T00:35:49.440Z,7.20
2023-03-15T00:36:49.396Z,6.60
2023-03-15T00:37:49.393Z,6.80
2023-03-15T00:38:49.379Z,7.20
2023-03-15T00:39:49.365Z,7.00
2023-03-15T00:40:49.359Z,5.70
2023-03-15T00:41:49.353Z,8.10
2023-03-15T00:42:49.334Z,10.70
2023-03-15T00:43:49.329Z,8.80
2023-03-15T00:44:49.312Z,8.70
2023-03-15T00:45:49.318Z,8.60
2023-03-15T00:46:49.366Z,8.70
2023-03-15T00:47:49.286Z,9.00
2023-03-15T00:48:49.280Z,9.40
2023-03-15T00:49:49.265Z,9.10
2023-03-15T00:50:49.278Z,8.00
2023-03-15T00:51:49.242Z,9.90
2023-03-15T00:52:49.229Z,8.10
2023-03-15T00:53:49.223Z,9.20
2023-03-15T00:54:49.211Z,6.90
2023-03-15T00:55:49.215Z,8.00
2023-03-15T00:56:49.191Z,8.40
2023-03-15T00:57:49.209Z,8.80
2023-03-15T00:58:49.170Z,8.50
2023-03-15T00:59:49.162Z,7.70
2023-03-15T01:00:49.158Z,7.70
2023-03-15T01:01:49.172Z,6.90
2023-03-15T01:02:49.173Z,6.90
2023-03-15T01:03:49.151Z,8.10
2023-03-15T01:04:49.104Z,7.60
2023-03-15T01:05:49.103Z,8.30
2023-03-15T01:06:49.079Z,7.80
2023-03-15T01:07:49.080Z,7.30
2023-03-15T01:08:49.060Z,6.50
2023-03-15T01:09:49.057Z,10.60
2023-03-15T01:10:49.047Z,8.70
2023-03-15T01:11:49.031Z,10.70
2023-03-15T01:12:49.020Z,9.20
2023-03-15T01:13:49.014Z,7.70
2023-03-15T01:14:48.998Z,8.30
2023-03-15T01:15:49.010Z,6.30
2023-03-15T01:16:48.977Z,5.80
2023-03-15T01:17:48.971Z,10.70
2023-03-15T01:18:48.962Z,8.70
2023-03-15T01:19:48.954Z,7.60
2023-03-15T01:20:48.946Z,8.80
2023-03-15T01:21:48.931Z,6.50
2023-03-15T01:22:48.925Z,7.80
2023-03-15T01:23:48.926Z,8.10
2023-03-15T01:24:48.913Z,8.10
2023-03-15T01:25:48.901Z,7.00
2023-03-15T01:26:48.873Z,10.80
2023-03-15T01:27:48.865Z,7.10
2023-03-15T01:28:48.854Z,8.30
2023-03-15T01:29:48.849Z,5.70
2023-03-15T01:30:49.863Z,8.90
2023-03-15T01:31:48.875Z,10.00
2023-03-15T01:32:48.839Z,11.40
2023-03-15T01:33:48.807Z,9.20
2023-03-15T01:34:48.790Z,9.40
2023-03-15T01:35:48.874Z,11.10
2023-03-15T01:36:48.771Z,6.80
2023-03-15T01:37:48.765Z,12.60
2023-03-15T01:38:48.755Z,8.20
2023-03-15T01:39:48.759Z,10.80
2023-03-15T01:40:48.747Z,7.00
2023-03-15T01:41:48.730Z,9.00
2023-03-15T01:42:48.714Z,12.60
2023-03-15T01:43:48.717Z,14.30
2023-03-15T01:44:48.691Z,7.70
2023-03-15T01:45:48.699Z,9.20
2023-03-15T01:46:48.680Z,5.80
2023-03-15T01:47:48.662Z,5.90
2023-03-15T01:48:48.652Z,10.50
2023-03-15T01:49:48.641Z,11.10
2023-03-15T01:50:48.639Z,11.60
2023-03-15T01:51:48.624Z,8.10
2023-03-15T01:52:48.606Z,8.10
2023-03-15T01:53:48.601Z,9.80
2023-03-15T01:54:48.593Z,11.70
2023-03-15T01:55:48.593Z,11.10
2023-03-15T01:56:48.569Z,8.80
2023-03-15T01:57:48.558Z,10.30
2023-03-15T01:58:48.545Z,5.30
2023-03-15T01:59:48.540Z,6.20
2023-03-15T02:00:48.587Z,6.90
2023-03-15T02:01:48.541Z,6.60
2023-03-15T02:02:48.504Z,9.20
2023-03-15T02:03:48.494Z,6.30
2023-03-15T02:04:48.495Z,7.70
2023-03-15T02:05:48.489Z,8.10
2023-03-15T02:06:48.468Z,9.50
2023-03-15T02:07:48.462Z,7.10
2023-03-15T02:08:48.443Z,6.40
2023-03-15T02:09:48.440Z,7.10
2023-03-15T02:10:48.456Z,6.40
2023-03-15T02:11:48.419Z,7.20
2023-03-15T02:12:48.402Z,11.20
2023-03-15T02:13:48.396Z,11.10
2023-03-15T02:14:48.396Z,13.20
2023-03-15T02:15:48.380Z,6.20
2023-03-15T02:16:48.429Z,5.60
2023-03-15T02:17:48.357Z,7.10
2023-03-15T02:18:48.347Z,8.30
2023-03-15T02:19:48.344Z,9.90
2023-03-15T02:20:48.327Z,9.60
2023-03-15T02:21:48.322Z,11.70
2023-03-15T02:22:48.301Z,7.30
2023-03-15T02:23:48.292Z,7.70
2023-03-15T02:24:48.284Z,7.00
2023-03-15T02:25:48.271Z,9.40
2023-03-15T02:26:48.269Z,9.60
2023-03-15T02:27:48.248Z,10.40
2023-03-15T02:28:48.236Z,8.10
2023-03-15T02:29:48.229Z,6.70
2023-03-15T02:30:48.218Z,8.90
2023-03-15T02:31:48.248Z,7.30
2023-03-15T02:32:48.239Z,7.60
2023-03-15T02:33:48.188Z,12.50
2023-03-15T02:34:48.179Z,11.40
2023-03-15T02:35:48.181Z,8.10
2023-03-15T02:36:48.167Z,10.60
2023-03-15T02:37:48.148Z,6.90
2023-03-15T02:38:48.133Z,7.90
2023-03-15T02:39:48.135Z,9.90
2023-03-15T02:40:48.116Z,9.40
2023-03-15T02:41:48.124Z,9.30
2023-03-15T02:42:48.101Z,7.60
2023-03-15T02:43:48.089Z,9.70
2023-03-15T02:44:48.074Z,8.40
2023-03-15T02:45:48.098Z,5.70
2023-03-15T02:46:48.069Z,8.80
2023-03-15T02:47:48.048Z,7.50
2023-03-15T02:48:48.036Z,6.90
2023-03-15T02:49:48.025Z,7.20
2023-03-15T02:50:48.014Z,10.30
2023-03-15T02:51:48.019Z,7.50
2023-03-15T02:52:47.996Z,12.30
2023-03-15T02:53:47.986Z,8.70
2023-03-15T02:54:47.976Z,8.30
2023-03-15T02:55:54.152Z,8.80
2023-03-15T02:56:47.963Z,9.10
2023-03-15T02:57:47.944Z,9.80
2023-03-15T02:58:47.934Z,8.20
2023-03-15T02:59:47.925Z,7.00
2023-03-15T03:00:47.932Z,10.10
2023-03-15T03:01:47.915Z,8.00
2023-03-15T03:02:47.976Z,10.10
2023-03-15T03:03:47.879Z,12.60
2023-03-15T03:04:47.874Z,11.50
2023-03-15T03:05:47.865Z,28.00
2023-03-15T03:06:47.858Z,26.50
2023-03-15T03:07:47.840Z,37.60
2023-03-15T03:08:47.845Z,85.70
2023-03-15T03:09:47.823Z,92.70
2023-03-15T03:10:47.816Z,58.50
2023-03-15T03:11:47.814Z,33.70
2023-03-15T03:12:47.792Z,19.70
2023-03-15T03:13:47.774Z,13.70
2023-03-15T03:14:47.771Z,10.80
2023-03-15T03:15:47.761Z,10.90
2023-03-15T03:16:47.783Z,9.80
2023-03-15T03:17:47.734Z,9.70
2023-03-15T03:18:47.729Z,6.40
2023-03-15T03:19:47.717Z,15.20
2023-03-15T03:20:47.705Z,9.60
2023-03-15T03:21:47.703Z,10.80
2023-03-15T03:22:47.698Z,8.20
2023-03-15T03:23:47.672Z,10.80
2023-03-15T03:24:47.665Z,7.80
2023-03-15T03:25:47.646Z,8.90
2023-03-15T03:26:47.651Z,9.40
2023-03-15T03:27:47.635Z,9.70
2023-03-15T03:28:47.632Z,7.50
2023-03-15T03:29:47.604Z,10.10
2023-03-15T03:30:47.673Z,6.90
2023-03-15T03:31:47.599Z,8.50
2023-03-15T03:32:47.618Z,9.40
2023-03-15T03:33:47.572Z,8.80
2023-03-15T03:34:47.560Z,10.90
2023-03-15T03:35:47.598Z,7.10
2023-03-15T03:36:47.539Z,8.50
2023-03-15T03:37:47.544Z,13.50
2023-03-15T03:38:47.525Z,10.10
2023-03-15T03:39:47.504Z,10.50
2023-03-15T03:40:47.496Z,9.90
2023-03-15T03:41:47.489Z,7.80
2023-03-15T03:42:47.509Z,9.30
2023-03-15T03:43:47.464Z,11.90
2023-03-15T03:44:47.462Z,14.60
2023-03-15T03:45:47.473Z,9.10
2023-03-15T03:46:47.431Z,6.00
2023-03-15T03:47:47.434Z,8.80
2023-03-15T03:48:47.409Z,11.60
2023-03-15T03:49:47.394Z,12.70
2023-03-15T03:50:47.391Z,13.10
2023-03-15T03:51:47.382Z,13.40
2023-03-15T03:52:47.378Z,9.20
2023-03-15T03:53:47.353Z,7.80
2023-03-15T03:54:47.349Z,9.60
2023-03-15T03:55:47.333Z,10.20
2023-03-15T03:56:47.326Z,12.20
2023-03-15T03:57:47.328Z,9.10
2023-03-15T03:58:47.300Z,8.50
2023-03-15T03:59:47.291Z,7.10
2023-03-15T04:00:47.287Z,9.70
2023-03-15T04:01:47.264Z,10.80
2023-03-15T04:02:47.343Z,7.60
2023-03-15T04:03:47.252Z,8.50
2023-03-15T04:04:47.286Z,13.10
2023-03-15T04:05:47.225Z,9.20
2023-03-15T04:06:47.212Z,8.10
2023-03-15T04:07:47.218Z,9.00
2023-03-15T04:08:47.216Z,15.10
2023-03-15T04:09:47.186Z,12.70
2023-03-15T04:10:47.172Z,6.80
2023-03-15T04:11:47.161Z,8.60
2023-03-15T04:12:47.170Z,10.20
2023-03-15T04:13:47.147Z,12.30
2023-03-15T04:14:47.138Z,11.60
2023-03-15T04:15:47.157Z,12.00
2023-03-15T04:16:47.124Z,11.00
2023-03-15T04:17:47.105Z,6.90
2023-03-15T04:18:47.092Z,11.30
2023-03-15T04:19:47.210Z,8.90
2023-03-15T04:20:47.082Z,9.90
2023-03-15T04:21:47.078Z,8.90
2023-03-15T04:22:47.063Z,12.00
2023-03-15T04:23:47.036Z,11.30
2023-03-15T04:24:47.033Z,11.80
2023-03-15T04:25:47.017Z,8.10
2023-03-15T04:26:47.012Z,8.90
2023-03-15T04:27:47.008Z,10.30
2023-03-15T04:28:46.998Z,9.80
2023-03-15T04:29:46.979Z,7.40
2023-03-15T04:30:46.971Z,7.70
2023-03-15T04:31:46.968Z,11.20
2023-03-15T04:32:46.983Z,11.50
2023-03-15T04:33:46.935Z,11.80
2023-03-15T04:34:46.933Z,7.90
2023-03-15T04:35:46.998Z,7.20
2023-03-15T04:36:46.906Z,9.70
2023-03-15T04:37:46.927Z,8.60
2023-03-15T04:38:46.895Z,8.90
2023-03-15T04:39:46.878Z,11.50
2023-03-15T04:40:46.872Z,7.60
2023-03-15T04:41:46.856Z,9.70
2023-03-15T04:42:46.860Z,10.00
2023-03-15T04:43:46.837Z,10.40
2023-03-15T04:44:46.832Z,6.80
2023-03-15T04:45:46.816Z,10.70
2023-03-15T04:46:46.930Z,13.00
2023-03-15T04:47:46.868Z,9.70
2023-03-15T04:48:46.784Z,10.40
2023-03-15T04:49:46.808Z,10.70
2023-03-15T04:50:46.765Z,8.80
2023-03-15T04:51:46.749Z,10.50
2023-03-15T04:52:46.758Z,8.10
2023-03-15T04:53:46.739Z,5.80
2023-03-15T04:54:46.726Z,15.70
2023-03-15T04:55:46.712Z,9.40
2023-03-15T04:56:46.708Z,13.00
2023-03-15T04:57:46.700Z,7.40
2023-03-15T04:58:46.684Z,8.50
2023-03-15T04:59:46.674Z,9.00
2023-03-15T05:00:46.686Z,15.10
2023-03-15T05:01:46.665Z,9.60
2023-03-15T05:02:46.655Z,13.10
2023-03-15T05:03:46.634Z,10.20
2023-03-15T05:04:46.623Z,11.50
2023-03-15T05:05:46.610Z,10.00
2023-03-15T05:06:46.599Z,6.40
2023-03-15T05:07:46.600Z,11.50
2023-03-15T05:08:46.585Z,12.40
2023-03-15T05:09:46.564Z,11.90
2023-03-15T05:10:46.562Z,10.20
2023-03-15T05:11:46.556Z,11.20
2023-03-15T05:12:46.550Z,11.00
2023-03-15T05:13:46.520Z,11.60
2023-03-15T05:14:46.560Z,11.50
2023-03-15T05:15:46.504Z,9.50
2023-03-15T05:16:46.493Z,10.40
2023-03-15T05:17:46.572Z,14.30
2023-03-15T05:18:46.473Z,10.10
2023-03-15T05:19:46.466Z,9.00
2023-03-15T05:20:46.458Z,12.00
2023-03-15T05:21:46.444Z,12.10
2023-03-15T05:22:46.439Z,9.10
2023-03-15T05:23:46.430Z,11.90
2023-03-15T05:24:46.414Z,9.90
2023-03-15T05:25:46.396Z,13.40
2023-03-15T05:26:46.395Z,6.60
2023-03-15T05:27:46.471Z,7.90
2023-03-15T05:28:46.369Z,11.80
2023-03-15T05:29:46.355Z,13.60
2023-03-15T05:30:46.350Z,10.90
2023-03-15T05:31:46.362Z,12.40
2023-03-15T05:32:46.392Z,10.50
2023-03-15T05:33:46.313Z,11.00
2023-03-15T05:34:46.304Z,8.50
2023-03-15T05:35:46.393Z,11.70
2023-03-15T05:36:46.287Z,10.40
2023-03-15T05:37:46.293Z,13.00
2023-03-15T05:38:46.262Z,14.60
2023-03-15T05:39:46.254Z,10.60
2023-03-15T05:40:46.307Z,10.10
2023-03-15T05:41:46.231Z,11.60
2023-03-15T05:42:46.228Z,12.40
2023-03-15T05:43:46.207Z,13.00
2023-03-15T05:44:46.227Z,8.60
2023-03-15T05:45:46.239Z,10.10
2023-03-15T05:46:46.201Z,13.20
2023-03-15T05:47:46.180Z,10.00
2023-03-15T05:48:46.158Z,10.50
2023-03-15T05:49:46.145Z,15.10
2023-03-15T05:50:46.137Z,14.50
2023-03-15T05:51:46.123Z,11.00
2023-03-15T05:52:46.127Z,11.80
2023-03-15T05:53:46.473Z,13.00
2023-03-15T05:54:46.097Z,13.70
2023-03-15T05:55:46.083Z,12.10
2023-03-15T05:56:46.078Z,11.00
2023-03-15T05:57:46.064Z,14.70
2023-03-15T05:58:46.053Z,10.20
2023-03-15T05:59:46.037Z,10.10
2023-03-15T06:00:46.031Z,9.50
2023-03-15T06:01:46.018Z,10.40
2023-03-15T06:02:46.022Z,11.70
2023-03-15T06:03:46.075Z,13.30
2023-03-15T06:04:45.983Z,11.00
2023-03-15T06:05:45.984Z,11.40
2023-03-15T06:06:45.975Z,11.90
2023-03-15T06:07:45.963Z,12.00
2023-03-15T06:08:45.943Z,13.30
2023-03-15T06:09:45.930Z,12.40
2023-03-15T06:10:45.921Z,12.70
2023-03-15T06:11:45.906Z,11.30
2023-03-15T06:12:45.908Z,11.30
2023-03-15T06:13:45.898Z,10.80
2023-03-15T06:14:45.879Z,8.80
2023-03-15T06:15:45.866Z,11.60
2023-03-15T06:16:45.893Z,9.20
2023-03-15T06:17:45.845Z,10.40
2023-03-15T06:18:45.848Z,11.30
2023-03-15T06:19:45.821Z,12.10
2023-03-15T06:20:45.812Z,8.00
2023-03-15T06:21:45.823Z,10.60
2023-03-15T06:22:45.792Z,11.20
2023-03-15T06:23:45.793Z,8.80
2023-03-15T06:24:45.771Z,8.00
2023-03-15T06:25:45.756Z,11.60
2023-03-15T06:26:45.750Z,12.60
2023-03-15T06:27:45.743Z,10.80
2023-03-15T06:28:45.740Z,8.00
2023-03-15T06:29:45.719Z,9.90
2023-03-15T06:30:45.739Z,9.40
2023-03-15T06:31:45.705Z,8.10
2023-03-15T06:32:45.704Z,8.20
2023-03-15T06:33:45.689Z,8.10
2023-03-15T06:34:45.674Z,9.50
2023-03-15T06:35:45.683Z,7.30
2023-03-15T06:36:45.651Z,10.20
2023-03-15T06:37:45.636Z,8.50
2023-03-15T06:38:45.650Z,7.90
2023-03-15T06:39:45.617Z,7.10
2023-03-15T06:40:45.613Z,7.30
2023-03-15T06:41:45.595Z,11.20
2023-03-15T06:42:45.586Z,7.40
2023-03-15T06:43:45.585Z,9.00
2023-03-15T06:44:45.575Z,10.00
2023-03-15T06:45:45.598Z,6.70
2023-03-15T06:46:45.546Z,12.10
2023-03-15T06:47:45.534Z,7.30
2023-03-15T06:48:45.535Z,7.10
2023-03-15T06:49:45.509Z,8.90
2023-03-15T06:50:47.696Z,7.70
2023-03-15T06:51:45.514Z,10.00
2023-03-15T06:52:45.482Z,8.30
2023-03-15T06:53:45.480Z,7.40
2023-03-15T06:54:45.482Z,7.80
2023-03-15T06:55:45.470Z,8.30
2023-03-15T06:56:45.454Z,10.00
2023-03-15T06:57:45.432Z,7.20
2023-03-15T06:58:45.470Z,7.30
2023-03-15T06:59:45.413Z,9.40
2023-03-15T07:00:45.396Z,11.10
2023-03-15T07:01:45.422Z,10.30
2023-03-15T07:02:45.435Z,7.70
2023-03-15T07:03:45.389Z,7.30
2023-03-15T07:04:45.368Z,7.40
2023-03-15T07:05:45.344Z,10.00
2023-03-15T07:06:45.338Z,8.60
2023-03-15T07:07:45.329Z,9.50
2023-03-15T07:08:45.328Z,6.40
2023-03-15T07:09:45.302Z,7.10
2023-03-15T07:10:45.318Z,8.60
2023-03-15T07:11:45.288Z,9.90
2023-03-15T07:12:45.287Z,7.70
2023-03-15T07:13:45.300Z,8.00
2023-03-15T07:14:45.256Z,7.50
2023-03-15T07:15:45.275Z,9.50
2023-03-15T07:16:45.238Z,9.30
2023-03-15T07:17:45.223Z,9.50
2023-03-15T07:18:45.233Z,11.10
2023-03-15T07:19:55.833Z,10.30
2023-03-15T07:20:46.200Z,10.30
2023-03-15T07:21:45.183Z,7.10
2023-03-15T07:22:45.180Z,9.50
2023-03-15T07:23:45.179Z,8.00
2023-03-15T07:24:45.152Z,9.10
2023-03-15T07:25:54.845Z,8.50
2023-03-15T07:26:46.167Z,7.50
2023-03-15T07:27:45.124Z,8.20
2023-03-15T07:28:45.119Z,8.40
2023-03-15T07:29:45.118Z,7.70
2023-03-15T07:30:45.567Z,9.70
2023-03-15T07:31:45.087Z,6.50
2023-03-15T07:32:45.190Z,8.00
2023-03-15T07:33:45.078Z,6.80
2023-03-15T07:34:45.054Z,7.50
2023-03-15T07:35:45.100Z,6.70
2023-03-15T07:36:45.026Z,11.30
2023-03-15T07:37:45.085Z,6.80
2023-03-15T07:38:45.019Z,7.20
2023-03-15T07:39:44.997Z,6.00
2023-03-15T07:40:44.985Z,7.20
2023-03-15T07:41:46.895Z,6.70
2023-03-15T07:42:44.960Z,8.20
2023-03-15T07:43:44.967Z,7.20
2023-03-15T07:44:44.944Z,8.70
2023-03-15T07:45:44.927Z,7.50
2023-03-15T07:46:44.953Z,8.50
2023-03-15T07:47:44.908Z,8.60
2023-03-15T07:48:44.940Z,10.00
2023-03-15T07:49:44.889Z,9.50
2023-03-15T07:50:44.933Z,11.00
2023-03-15T07:51:44.863Z,7.90
2023-03-15T07:52:44.857Z,8.90
2023-03-15T07:53:44.871Z,9.10
2023-03-15T07:54:44.863Z,8.00
2023-03-15T07:55:44.839Z,7.40
2023-03-15T07:56:44.811Z,7.30
2023-03-15T07:57:44.803Z,6.60
2023-03-15T07:58:44.796Z,6.00
2023-03-15T07:59:44.820Z,8.90
2023-03-15T08:00:44.783Z,8.60
2023-03-15T08:01:44.812Z,7.90
2023-03-15T08:02:44.814Z,8.40
2023-03-15T08:03:44.755Z,9.40
2023-03-15T08:04:44.727Z,6.20
2023-03-15T08:05:44.722Z,7.30
2023-03-15T08:06:44.704Z,8.20
2023-03-15T08:07:44.709Z,8.90
2023-03-15T08:08:44.700Z,5.90
2023-03-15T08:09:44.687Z,8.40
2023-03-15T08:10:44.666Z,7.50
2023-03-15T08:11:45.715Z,6.60
2023-03-15T08:12:44.698Z,6.30
2023-03-15T08:13:44.670Z,7.80
2023-03-15T08:14:44.630Z,4.50
2023-03-15T08:15:44.626Z,6.20
2023-03-15T08:16:44.707Z,7.50
2023-03-15T08:17:44.617Z,5.10
2023-03-15T08:18:44.593Z,8.40
2023-03-15T08:19:44.584Z,5.20
2023-03-15T08:20:44.569Z,6.90
2023-03-15T08:21:44.550Z,6.10
2023-03-15T08:22:44.596Z,7.50
2023-03-15T08:23:44.547Z,8.10
2023-03-15T08:27:18.129Z,5.20
2023-03-15T08:28:18.056Z,7.00
2023-03-15T08:29:18.056Z,6.10
2023-03-15T08:30:18.026Z,7.40
2023-03-15T08:31:18.041Z,7.90
2023-03-15T08:32:18.005Z,5.30
2023-03-15T08:34:58.105Z,5.20
2023-03-15T08:35:44.137Z,6.80
2023-03-15T08:36:44.282Z,6.10
2023-03-15T08:37:43.934Z,6.00
2023-03-15T08:38:43.933Z,5.30
2023-03-15T08:39:43.952Z,6.50
2023-03-15T08:40:43.898Z,6.30
2023-03-15T08:41:43.895Z,5.80
2023-03-15T08:42:43.875Z,7.40
2023-03-15T08:43:43.886Z,5.10
2023-03-15T08:44:43.892Z,5.50
2023-03-15T08:46:00.315Z,4.90
2023-03-15T08:46:44.942Z,5.80
2023-03-15T08:47:43.839Z,5.80
2023-03-15T08:48:43.827Z,5.70
2023-03-15T08:49:43.857Z,6.90
2023-03-15T08:50:43.791Z,5.30
2023-03-15T08:51:43.779Z,5.30
2023-03-15T08:52:43.774Z,5.60
2023-03-15T08:53:43.775Z,6.50
2023-03-15T08:54:43.746Z,6.60
2023-03-15T08:55:43.742Z,5.60
2023-03-15T08:56:43.723Z,7.90
2023-03-15T08:57:43.714Z,8.00
2023-03-15T08:58:43.714Z,6.40
2023-03-15T08:59:43.801Z,7.50
2023-03-15T09:00:43.698Z,7.10
2023-03-15T09:01:43.678Z,6.00
2023-03-15T09:02:43.726Z,6.80
2023-03-15T09:03:43.657Z,6.30
2023-03-15T09:04:43.733Z,5.90
2023-03-15T09:05:43.635Z,6.30
2023-03-15T09:06:43.624Z,6.90
2023-03-15T09:07:43.608Z,6.10
2023-03-15T09:08:43.607Z,6.60
2023-03-15T09:09:43.590Z,5.90
2023-03-15T09:10:43.575Z,4.30
2023-03-15T09:11:43.570Z,4.20
2023-03-15T09:12:43.556Z,4.30
2023-03-15T09:13:43.562Z,5.20
2023-03-15T09:14:43.530Z,4.80
2023-03-15T09:15:43.673Z,10.80
2023-03-15T09:16:44.206Z,5.10
2023-03-15T09:17:43.501Z,5.80
2023-03-15T09:18:43.492Z,16.30
2023-03-15T09:19:43.492Z,17.10
2023-03-15T09:20:43.471Z,13.80
2023-03-15T09:21:44.899Z,29.70
2023-03-15T09:22:43.464Z,10.50
2023-03-15T09:23:45.066Z,24.30
2023-03-15T09:24:43.444Z,43.40
2023-03-15T09:25:43.430Z,18.60
2023-03-15T09:26:43.419Z,20.00
2023-03-15T09:27:43.401Z,13.90
2023-03-15T09:28:43.386Z,8.60
2023-03-15T09:29:43.395Z,6.20
2023-03-15T09:30:43.442Z,12.60
2023-03-15T09:31:43.366Z,10.00
2023-03-15T09:32:43.479Z,7.00
2023-03-15T09:33:43.338Z,14.70
2023-03-15T09:34:43.342Z,15.00
2023-03-15T09:35:43.337Z,6.70
2023-03-15T09:36:43.300Z,7.00
2023-03-15T09:37:43.298Z,11.20
2023-03-15T09:38:43.288Z,4.20
2023-03-15T09:39:43.293Z,8.70
2023-03-15T09:40:43.501Z,8.50
2023-03-15T09:41:43.267Z,9.40
2023-03-15T09:42:43.243Z,14.60
2023-03-15T09:43:43.643Z,9.30
2023-03-15T09:51:53.124Z,4.80
2023-03-15T09:52:53.117Z,5.30
2023-03-15T09:53:57.298Z,11.30
2023-03-15T09:54:53.189Z,11.90
2023-03-15T09:55:53.118Z,9.70
2023-03-15T09:59:50.175Z,5.70
2023-03-15T10:00:45.707Z,7.90
2023-03-15T10:01:45.219Z,6.00
2023-03-15T10:02:45.034Z,4.00
2023-03-15T10:03:45.053Z,3.80
2023-03-15T10:04:44.993Z,3.70
2023-03-15T10:05:44.971Z,4.10
2023-03-15T10:06:44.948Z,3.90
2023-03-15T10:07:44.930Z,4.10
2023-03-15T10:08:44.917Z,4.20
2023-03-15T10:09:44.926Z,5.90
2023-03-15T10:10:44.946Z,4.70
2023-03-15T10:14:37.984Z,4.00
2023-03-15T10:15:36.834Z,4.80
2023-03-15T10:16:36.822Z,3.20
2023-03-15T10:17:36.816Z,3.50
2023-03-15T10:18:36.803Z,3.10
2023-03-15T10:19:36.804Z,2.80
2023-03-15T10:20:36.783Z,3.10
2023-03-15T10:21:36.777Z,4.90
2023-03-15T10:22:37.507Z,3.10
2023-03-15T10:23:36.752Z,3.30
2023-03-15T10:24:36.744Z,4.20
2023-03-15T10:25:36.735Z,3.60
2023-03-15T10:26:36.719Z,4.00
2023-03-15T10:27:36.707Z,2.60
2023-03-15T10:28:37.239Z,4.70
2023-03-15T10:29:44.483Z,4.10
2023-03-15T10:30:36.891Z,4.50
2023-03-15T10:31:44.683Z,3.40
2023-03-15T10:32:37.692Z,2.80
2023-03-15T10:33:36.642Z,3.70
2023-03-15T10:35:05.531Z,4.40
2023-03-15T10:35:36.656Z,3.30
2023-03-15T10:36:36.627Z,4.30
2023-03-15T10:37:36.601Z,2.60
2023-03-15T10:38:36.629Z,2.50
2023-03-15T10:39:36.603Z,4.30
2023-03-15T10:40:36.581Z,2.80
2023-03-15T10:41:36.556Z,8.20
2023-03-15T10:42:36.824Z,4.80
2023-03-15T10:43:36.531Z,13.10
2023-03-15T10:44:36.525Z,5.80
2023-03-15T10:45:36.524Z,2.70
2023-03-15T10:46:36.526Z,4.60
2023-03-15T10:47:36.822Z,4.70
2023-03-15T10:48:36.483Z,3.60
2023-03-15T10:49:36.486Z,2.90
2023-03-15T10:50:36.469Z,7.20
2023-03-15T10:51:36.450Z,4.60
2023-03-15T10:52:36.441Z,8.30
2023-03-15T10:53:36.434Z,9.90
2023-03-15T10:54:36.417Z,4.90
2023-03-15T10:55:36.419Z,2.70
2023-03-15T10:56:36.405Z,3.20
2023-03-15T10:57:36.406Z,2.60
2023-03-15T10:58:36.384Z,2.90
2023-03-15T10:59:36.386Z,4.20
2023-03-15T11:00:36.399Z,4.00
2023-03-15T11:01:36.381Z,3.30
2023-03-15T11:02:36.358Z,2.40
2023-03-15T11:03:36.324Z,1.80
2023-03-15T11:04:36.315Z,2.70
2023-03-15T11:05:36.318Z,4.10
2023-03-15T11:06:36.287Z,2.00
2023-03-15T11:07:36.289Z,3.10
2023-03-15T11:08:36.268Z,2.70
2023-03-15T11:09:36.321Z,1.60
2023-03-15T11:10:36.285Z,2.90
2023-03-15T11:11:36.244Z,2.00
2023-03-15T11:12:36.228Z,3.60
2023-03-15T11:13:36.266Z,2.10
2023-03-15T11:14:36.215Z,3.90
2023-03-15T11:15:36.216Z,2.80
2023-03-15T11:16:36.328Z,1.40
2023-03-15T11:17:36.997Z,2.20
2023-03-15T11:18:36.168Z,3.30
2023-03-15T11:19:36.272Z,2.40
2023-03-15T11:20:36.161Z,2.30
2023-03-15T11:21:36.146Z,3.10
2023-03-15T11:22:36.925Z,2.00
2023-03-15T11:23:36.124Z,2.80
2023-03-15T11:24:36.142Z,2.00
2023-03-15T11:25:36.200Z,3.30
2023-03-15T11:29:34.700Z,3.20
2023-03-15T11:30:28.045Z,2.30
2023-03-15T11:31:28.061Z,3.20
2023-03-15T11:32:28.080Z,3.20
2023-03-15T11:33:28.022Z,1.60
2023-03-15T11:34:28.000Z,3.10
2023-03-15T11:35:28.007Z,2.60
2023-03-15T11:36:27.991Z,2.60
2023-03-15T11:37:27.973Z,3.30
2023-03-15T11:38:27.969Z,3.70
2023-03-15T11:39:27.959Z,2.30
2023-03-15T11:40:27.944Z,3.30
2023-03-15T11:41:28.183Z,4.90
2023-03-15T11:43:03.684Z,6.10
2023-03-15T11:43:27.910Z,4.60
2023-03-15T11:44:27.901Z,5.90
2023-03-15T11:45:27.951Z,2.80
2023-03-15T11:46:27.895Z,3.70
2023-03-15T11:47:27.867Z,2.70
2023-03-15T11:48:27.878Z,4.90
2023-03-15T11:49:34.689Z,1.90
2023-03-15T11:50:27.847Z,3.00
2023-03-15T11:51:28.055Z,3.60
2023-03-15T11:52:27.899Z,3.80
2023-03-15T11:53:27.857Z,2.40
2023-03-15T11:54:27.795Z,3.10
2023-03-15T11:55:27.786Z,2.70
2023-03-15T11:56:27.792Z,2.60
2023-03-15T11:57:27.769Z,3.40
2023-03-15T11:58:27.754Z,2.90
2023-03-15T11:59:27.740Z,1.80
2023-03-15T12:00:27.735Z,2.10
2023-03-15T12:01:27.741Z,1.60
2023-03-15T12:02:27.778Z,1.20
2023-03-15T12:03:27.810Z,2.90
2023-03-15T12:04:27.693Z,3.30
2023-03-15T12:05:27.681Z,4.50
2023-03-15T12:06:27.678Z,2.50
2023-03-15T12:07:27.665Z,2.50
2023-03-15T12:08:27.645Z,2.60
2023-03-15T12:09:27.640Z,3.00
2023-03-15T12:10:27.625Z,1.70
2023-03-15T12:11:27.632Z,2.60
2023-03-15T12:12:27.606Z,1.80
2023-03-15T12:13:27.589Z,3.00
2023-03-15T12:14:27.582Z,1.50
2023-03-15T12:15:27.629Z,2.80
2023-03-15T12:16:27.618Z,2.60
2023-03-15T12:17:27.545Z,2.00
2023-03-15T12:18:27.536Z,2.60
2023-03-15T12:19:27.522Z,3.80
2023-03-15T12:20:27.510Z,2.20
2023-03-15T12:21:28.646Z,1.80
2023-03-15T12:22:28.614Z,3.40
2023-03-15T12:23:28.606Z,2.10
2023-03-15T12:24:28.609Z,1.70
2023-03-15T12:25:28.583Z,2.20
2023-03-15T12:26:28.584Z,1.60
2023-03-15T12:27:28.570Z,1.60
2023-03-15T12:28:28.555Z,1.50
2023-03-15T12:29:29.540Z,1.60
2023-03-15T12:30:28.663Z,3.40
2023-03-15T12:31:28.551Z,2.10
2023-03-15T12:32:28.570Z,2.60
2023-03-15T12:40:31.528Z,3.40
2023-03-15T12:40:42.229Z,3.00
2023-03-15T12:41:42.137Z,2.70
2023-03-15T12:45:37.567Z,4.20
2023-03-15T12:46:35.067Z,1.90
2023-03-15T12:47:34.050Z,2.40
2023-03-15T12:49:59.962Z,2.90
2023-03-15T12:50:59.967Z,1.80
2023-03-15T12:52:00.442Z,1.80
2023-03-15T12:53:00.353Z,3.20
2023-03-15T12:54:00.081Z,3.40
2023-03-15T12:57:52.017Z,2.70
2023-03-15T12:58:51.929Z,2.80
2023-03-15T12:59:51.968Z,4.00
2023-03-15T13:00:52.015Z,3.20
2023-03-15T13:01:54.637Z,4.00
2023-03-15T13:02:52.330Z,4.90
2023-03-15T13:23:57.836Z,3.70
2023-03-15T13:24:56.678Z,3.40
2023-03-15T13:25:56.631Z,1.90
2023-03-15T13:26:59.346Z,2.30
2023-03-15T13:27:56.675Z,2.60
2023-03-15T13:28:56.677Z,3.30
2023-03-15T13:29:56.662Z,2.80
2023-03-15T13:30:56.667Z,2.40
2023-03-15T13:31:56.578Z,2.30
2023-03-15T13:32:56.645Z,3.20
2023-03-15T13:33:56.573Z,3.20
2023-03-15T13:34:56.534Z,3.30
2023-03-15T13:35:56.577Z,5.90
2023-03-15T13:36:56.510Z,9.80
2023-03-15T13:37:56.517Z,8.00
2023-03-15T13:38:56.485Z,13.30
2023-03-15T13:39:56.500Z,4.90
2023-03-15T13:40:56.474Z,11.00
2023-03-15T13:41:56.463Z,8.60
2023-03-15T13:42:57.740Z,9.50
2023-03-15T13:43:56.465Z,6.80
2023-03-15T13:44:56.427Z,6.20
2023-03-15T13:45:56.417Z,8.50
2023-03-15T13:46:56.436Z,43.00
2023-03-15T13:47:56.414Z,17.00
2023-03-15T13:48:56.585Z,41.50
2023-03-15T13:49:57.742Z,6.70
2023-03-15T13:50:56.383Z,6.40
2023-03-15T13:51:56.372Z,3.50
2023-03-15T13:52:56.368Z,4.80
2023-03-15T13:53:56.339Z,3.90
2023-03-15T13:54:56.334Z,2.80
2023-03-15T13:55:56.328Z,2.90
2023-03-15T13:56:56.323Z,3.40
2023-03-15T13:57:56.315Z,4.50
2023-03-15T13:58:56.286Z,3.50
2023-03-15T13:59:56.299Z,2.00
2023-03-15T14:00:56.276Z,9.30
2023-03-15T14:01:56.363Z,5.70
2023-03-15T14:02:56.299Z,5.10
2023-03-15T14:03:56.242Z,4.10
2023-03-15T14:04:56.235Z,3.60
2023-03-15T14:05:56.234Z,2.20